Time;durP1;ratioP1;P1;durP2;ratioP2;P2;SDS_P1;SDS_P2;PMS_P1;PMS_P2;Temp;Humidity;BMP_temperature;BMP_pressure;BME280_temperature;BME280_humidity;BME280_pressure;Samples;Min_cycle;Max_cycle;Signal;HPM_P1;HPM_P2
2021/03/13 00:02:22;;;;;;;;;;;;;;;1.30;72.12;98246.81;5113238;28;19930;-68
2021/03/13 00:04:47;;;;;;;;;;;;;;;1.29;72.20;98241.72;5115162;28;19919;-66
2021/03/13 00:07:12;;;;;;;;;;;;;;;1.27;72.14;98240.88;5115637;28;20239;-67
2021/03/13 00:09:37;;;;;;;;;;;;;;;1.32;71.71;98245.13;5111298;28;19920;-67
2021/03/13 00:12:03;;;;;;;;;;;;;;;1.19;72.34;98239.94;5114966;28;19963;-67
2021/03/13 00:14:28;;;;;;;;;;;;;;;1.16;72.52;98247.47;5115511;28;19915;-67
2021/03/13 00:16:53;;;;;;;;;;;;;;;1.08;72.95;98244.84;5119271;28;19916;-67
2021/03/13 00:19:18;;;;;;;;;;;;;;;1.09;72.72;98238.97;5107070;28;20051;-67
2021/03/13 00:21:44;;;;;;;;;;;;;;;1.16;72.41;98245.78;5116303;28;19968;-67
2021/03/13 00:24:09;;;;;;;;;;;;;;;1.24;71.98;98248.38;5112814;28;20002;-67
2021/03/13 00:26:34;;;;;;;;;;;;;;;1.23;72.32;98249.25;5115808;28;19926;-67
2021/03/13 00:28:59;;;;;;;;;;;;;;;1.27;71.84;98249.28;5110371;28;19919;-67
2021/03/13 00:31:25;;;;;;;;;;;;;;;1.18;72.08;98248.34;5116800;28;20252;-67
2021/03/13 00:33:50;;;;;;;;;;;;;;;1.06;72.41;98246.50;5113009;28;19920;-67
2021/03/13 00:36:15;;;;;;;;;;;;;;;1.04;72.27;98244.78;5115297;28;20516;-67
2021/03/13 00:38:40;;;;;;;;;;;;;;;0.90;72.72;98244.63;5110463;28;19916;-67
2021/03/13 00:41:06;;;;;;;;;;;;;;;0.83;72.90;98251.28;5112483;28;19916;-68
2021/03/13 00:43:31;;;;;;;;;;;;;;;0.75;73.05;98252.84;5114921;28;19931;-67
2021/03/13 00:45:56;;;;;;;;;;;;;;;0.70;74.08;98253.59;5112502;28;20137;-67
2021/03/13 00:48:22;;;;;;;;;;;;;;;0.76;73.72;98249.50;5111858;28;20011;-67
2021/03/13 00:50:47;;;;;;;;;;;;;;;0.77;73.97;98250.31;5114277;28;19912;-66
2021/03/13 00:53:13;;;;;;;;;;;;;;;0.81;73.58;98249.53;5113186;28;20190;-66
2021/03/13 00:55:38;;;;;;;;;;;;;;;0.83;73.85;98253.78;5112682;28;19911;-67
2021/03/13 00:58:04;;;;;;;;;;;;;;;0.84;73.33;98252.97;5115069;28;19915;-67
2021/03/13 01:00:29;;;;;;;;;;;;;;;0.86;72.91;98251.31;5111988;28;19963;-67
2021/03/13 01:02:54;;;;;;;;;;;;;;;0.82;73.36;98247.03;5113716;28;20326;-67
2021/03/13 01:05:20;;;;;;;;;;;;;;;0.78;73.16;98245.31;5115360;28;20324;-66
2021/03/13 01:07:46;;;;;;;;;;;;;;;0.77;73.02;98242.75;5113276;28;20381;-67
2021/03/13 01:10:14;;;;;;;;;;;;;;;0.70;73.61;98251.94;5109730;28;19927;-67
2021/03/13 01:12:39;;;;;;;;;;;;;;;0.62;73.72;98238.38;5108922;28;20282;-67
2021/03/13 01:15:07;;;;;;;;;;;;;;;0.64;73.46;98230.81;5108046;28;20034;-67
2021/03/13 01:17:33;;;;;;;;;;;;;;;0.59;73.38;98228.25;5111824;28;20264;-66
2021/03/13 01:19:58;;;;;;;;;;;;;;;0.47;74.31;98225.53;5109481;28;19916;-66
2021/03/13 01:22:23;;;;;;;;;;;;;;;0.47;74.40;98231.44;5111935;28;20249;-67
2021/03/13 01:24:48;;;;;;;;;;;;;;;0.46;74.26;98223.88;5108433;28;20018;-66
2021/03/13 01:27:14;;;;;;;;;;;;;;;0.44;74.40;98228.88;5114489;28;19920;-67
2021/03/13 01:29:39;;;;;;;;;;;;;;;0.40;74.80;98228.81;5108783;28;20298;-67
2021/03/13 01:32:04;;;;;;;;;;;;;;;0.31;74.63;98228.66;5112521;28;19915;-67
2021/03/13 01:34:33;;;;;;;;;;;;;;;0.31;75.16;98227.00;5116316;28;19919;-66
2021/03/13 01:36:58;;;;;;;;;;;;;;;0.28;75.32;98228.63;5118508;28;19999;-67
2021/03/13 01:39:24;;;;;;;;;;;;;;;0.22;75.72;98221.81;5116587;28;19959;-67
2021/03/13 01:41:49;;;;;;;;;;;;;;;0.26;75.74;98222.69;5110394;28;19916;-67
2021/03/13 01:44:14;;;;;;;;;;;;;;;0.28;75.19;98223.59;5113602;28;19991;-67
2021/03/13 01:46:40;;;;;;;;;;;;;;;0.24;75.60;98225.22;5116786;28;19937;-66
2021/03/13 01:49:05;;;;;;;;;;;;;;;0.33;75.43;98224.50;5105861;28;19920;-67
2021/03/13 01:51:31;;;;;;;;;;;;;;;0.32;74.98;98235.41;5110102;28;19922;-67
2021/03/13 01:53:56;;;;;;;;;;;;;;;0.29;75.03;98227.81;5108622;28;19916;-67
2021/03/13 01:56:21;;;;;;;;;;;;;;;0.25;74.91;98213.47;5106984;28;20261;-67
2021/03/13 01:58:46;;;;;;;;;;;;;;;0.15;75.59;98219.19;5113775;28;19963;-66
2021/03/13 02:01:12;;;;;;;;;;;;;;;0.19;75.78;98209.19;5109363;28;19982;-67
2021/03/13 02:03:46;;;;;;;;;;;;;;;0.11;75.66;98208.22;5111057;28;19945;-67
2021/03/13 02:06:11;;;;;;;;;;;;;;;0.08;75.57;98212.38;5110177;28;19926;-67
2021/03/13 02:08:40;;;;;;;;;;;;;;;0.05;75.81;98205.59;5109874;28;20247;-67
2021/03/13 02:11:20;;;;;;;;;;;;;;;0.02;75.82;98202.19;5103780;28;19915;-67
2021/03/13 02:13:55;;;;;;;;;;;;;;;-0.02;75.72;98202.13;5108762;28;20002;-67
2021/03/13 02:16:27;;;;;;;;;;;;;;;-0.10;76.32;98198.66;5110107;28;19927;-67
2021/03/13 02:19:08;;;;;;;;;;;;;;;-0.13;76.28;98198.59;5108523;28;19923;-68
2021/03/13 02:21:43;;;;;;;;;;;;;;;-0.17;76.09;98206.09;5116650;28;19916;-67
2021/03/13 02:24:14;;;;;;;;;;;;;;;-0.16;76.20;98207.78;5111578;28;19919;-68
2021/03/13 02:26:52;;;;;;;;;;;;;;;-0.20;76.60;98201.00;5119392;28;19928;-66
2021/03/13 02:29:17;;;;;;;;;;;;;;;-0.19;76.29;98203.53;5111620;28;19977;-69
2021/03/13 02:31:46;;;;;;;;;;;;;;;-0.24;76.62;98205.13;5120204;28;19919;-67
2021/03/13 02:34:12;;;;;;;;;;;;;;;-0.29;77.13;98206.72;5112197;28;19960;-68
2021/03/13 02:36:39;;;;;;;;;;;;;;;-0.21;76.84;98212.72;5122238;28;19923;-69
2021/03/13 02:39:08;;;;;;;;;;;;;;;-0.24;77.13;98207.66;5109631;28;19931;-68
2021/03/13 02:41:43;;;;;;;;;;;;;;;-0.27;77.21;98210.13;5114320;28;19915;-68
2021/03/13 02:44:10;;;;;;;;;;;;;;;-0.16;76.54;98202.72;5110951;28;20371;-68
2021/03/13 02:46:40;;;;;;;;;;;;;;;-0.20;76.43;98196.81;5114625;28;19920;-68
2021/03/13 02:49:06;;;;;;;;;;;;;;;-0.22;76.87;98205.16;5113071;28;20568;-69
2021/03/13 02:51:32;;;;;;;;;;;;;;;-0.04;76.04;98206.28;5117050;28;19916;-69
2021/03/13 02:53:58;;;;;;;;;;;;;;;0.06;75.38;98199.72;5114446;28;19995;-68
2021/03/13 02:56:24;;;;;;;;;;;;;;;-0.08;75.85;98199.50;5109773;28;20265;-68
2021/03/13 02:58:50;;;;;;;;;;;;;;;0.03;75.82;98193.81;5115102;28;19912;-68
2021/03/13 03:01:16;;;;;;;;;;;;;;;0.02;75.45;98203.03;5108376;28;19923;-66
2021/03/13 03:03:44;;;;;;;;;;;;;;;0.02;75.12;98192.09;5113567;28;19931;-68
2021/03/13 03:06:09;;;;;;;;;;;;;;;-0.03;75.23;98187.84;5109763;28;19916;-66
2021/03/13 03:08:37;;;;;;;;;;;;;;;-0.07;75.36;98191.13;5111638;28;20521;-67
2021/03/13 03:11:03;;;;;;;;;;;;;;;-0.09;75.62;98180.22;5109385;28;20292;-67
2021/03/13 03:13:28;;;;;;;;;;;;;;;-0.12;76.24;98192.72;5115995;28;19998;-68
2021/03/13 03:15:58;;;;;;;;;;;;;;;-0.03;75.79;98192.03;5108360;28;19943;-68
2021/03/13 03:18:26;;;;;;;;;;;;;;;-0.11;75.92;98184.34;5112533;28;20265;-68
2021/03/13 03:20:51;;;;;;;;;;;;;;;-0.04;76.12;98198.72;5110670;28;20010;-68
2021/03/13 03:23:17;;;;;;;;;;;;;;;-0.01;75.79;98195.44;5112925;28;20041;-68
2021/03/13 03:25:42;;;;;;;;;;;;;;;-0.07;76.00;98187.75;5108997;28;19930;-68
2021/03/13 03:28:08;;;;;;;;;;;;;;;0.00;76.06;98192.09;5113644;28;19935;-68
2021/03/13 03:30:34;;;;;;;;;;;;;;;0.05;75.29;98192.13;5114609;28;20227;-68
2021/03/13 03:33:00;;;;;;;;;;;;;;;0.04;75.03;98195.50;5115947;28;19911;-68
2021/03/13 03:35:26;;;;;;;;;;;;;;;-0.06;75.73;98185.28;5114901;28;20165;-68
2021/03/13 03:37:52;;;;;;;;;;;;;;;0.03;75.49;98189.63;5112680;28;19915;-67
2021/03/13 03:40:18;;;;;;;;;;;;;;;0.02;75.52;98180.34;5113756;28;19915;-67
2021/03/13 03:42:50;;;;;;;;;;;;;;;-0.06;75.92;98202.06;5117206;28;19989;-68
2021/03/13 03:45:17;;;;;;;;;;;;;;;0.09;74.98;98189.69;5114576;28;20006;-67
2021/03/13 03:47:43;;;;;;;;;;;;;;;0.14;74.53;98195.66;5113853;28;20154;-67
2021/03/13 03:50:09;;;;;;;;;;;;;;;0.09;74.86;98194.72;5112947;28;19928;-67
2021/03/13 03:52:34;;;;;;;;;;;;;;;0.07;75.01;98175.38;5113622;28;19926;-68
2021/03/13 03:55:01;;;;;;;;;;;;;;;0.07;75.39;98210.66;5116508;28;19920;-67
2021/03/13 03:57:28;;;;;;;;;;;;;;;0.19;74.59;98194.06;5113128;28;19973;-67
2021/03/13 03:59:54;;;;;;;;;;;;;;;0.15;74.79;98193.97;5114591;28;19961;-67
2021/03/13 04:02:21;;;;;;;;;;;;;;;0.08;74.61;98182.13;5115554;28;19919;-67
2021/03/13 04:04:49;;;;;;;;;;;;;;;0.03;75.64;98186.25;5115214;27;19916;-67
2021/03/13 04:07:15;;;;;;;;;;;;;;;0.01;75.63;98193.78;5112866;28;19927;-67
2021/03/13 04:09:41;;;;;;;;;;;;;;;-0.02;75.71;98196.25;5116194;28;19969;-67
2021/03/13 04:12:08;;;;;;;;;;;;;;;-0.03;75.88;98192.03;5107715;28;19916;-67
2021/03/13 04:14:34;;;;;;;;;;;;;;;-0.01;76.09;98196.28;5110423;28;19920;-67
2021/03/13 04:16:59;;;;;;;;;;;;;;;0.08;75.84;98187.16;5113675;28;19931;-67
2021/03/13 04:19:26;;;;;;;;;;;;;;;0.10;75.90;98186.34;5114134;28;20200;-68
2021/03/13 04:21:51;;;;;;;;;;;;;;;0.07;75.88;98177.91;5114496;28;19923;-67
2021/03/13 04:24:17;;;;;;;;;;;;;;;0.21;75.88;98182.31;5113264;28;19916;-67
2021/03/13 04:26:43;;;;;;;;;;;;;;;0.26;75.77;98182.38;5113227;28;20295;-67
2021/03/13 04:29:08;;;;;;;;;;;;;;;0.29;75.52;98187.47;5112249;28;19916;-67
2021/03/13 04:31:35;;;;;;;;;;;;;;;0.35;75.63;98182.50;5117773;28;19965;-67
2021/03/13 04:34:01;;;;;;;;;;;;;;;0.42;74.99;98176.75;5112521;28;20018;-67
2021/03/13 04:36:28;;;;;;;;;;;;;;;0.54;74.95;98164.28;5116119;28;20006;-67
2021/03/13 04:38:54;;;;;;;;;;;;;;;0.64;74.95;98168.59;5110108;28;19920;-67
2021/03/13 04:41:20;;;;;;;;;;;;;;;0.68;74.79;98167.81;5114338;28;20177;-67
2021/03/13 04:43:45;;;;;;;;;;;;;;;0.73;74.75;98161.16;5113450;28;20078;-68
2021/03/13 04:46:10;;;;;;;;;;;;;;;0.78;74.78;98161.22;5118476;28;19962;-68
2021/03/13 04:48:36;;;;;;;;;;;;;;;0.98;75.72;98158.94;5112310;28;19923;-68
2021/03/13 04:51:05;;;;;;;;;;;;;;;1.13;76.35;98157.41;5112512;28;20057;-67
2021/03/13 04:53:31;;;;;;;;;;;;;;;1.50;76.61;98157.75;5108658;28;20014;-68
2021/03/13 04:55:57;;;;;;;;;;;;;;;1.78;76.08;98160.53;5108976;28;19930;-68
2021/03/13 04:58:22;;;;;;;;;;;;;;;2.05;75.94;98154.84;5112840;28;20349;-68
2021/03/13 05:00:48;;;;;;;;;;;;;;;2.73;74.21;98167.88;5110496;27;21191;-68
2021/03/13 05:03:14;;;;;;;;;;;;;;;3.29;71.86;98149.47;5110634;28;19916;-68
2021/03/13 05:05:39;;;;;;;;;;;;;;;3.93;69.00;98155.44;5108018;28;20269;-68
2021/03/13 05:08:05;;;;;;;;;;;;;;;4.20;68.04;98146.13;5104963;28;19924;-68
2021/03/13 05:10:31;;;;;;;;;;;;;;;4.31;67.67;98157.94;5109767;28;19915;-67
2021/03/13 05:12:56;;;;;;;;;;;;;;;4.46;67.14;98152.81;5111566;28;19947;-67
2021/03/13 05:15:23;;;;;;;;;;;;;;;4.63;66.14;98157.84;5115140;28;19958;-68
2021/03/13 05:17:48;;;;;;;;;;;;;;;4.82;65.47;98148.47;5109340;28;19968;-68
2021/03/13 05:20:14;;;;;;;;;;;;;;;5.05;64.82;98155.13;5113761;28;20176;-68
2021/03/13 05:22:39;;;;;;;;;;;;;;;5.09;64.88;98150.91;5116102;28;19931;-67
2021/03/13 05:25:06;;;;;;;;;;;;;;;5.29;64.01;98156.72;5108744;28;19920;-68
2021/03/13 05:27:31;;;;;;;;;;;;;;;5.42;63.66;98157.47;5111224;28;20239;-68
2021/03/13 05:29:57;;;;;;;;;;;;;;;5.57;63.34;98156.53;5111096;28;20007;-66
2021/03/13 05:32:23;;;;;;;;;;;;;;;5.70;62.98;98160.66;5111376;28;20292;-66
2021/03/13 05:34:49;;;;;;;;;;;;;;;5.80;62.99;98157.22;5109156;28;20010;-67
2021/03/13 05:37:14;;;;;;;;;;;;;;;5.88;62.63;98163.13;5114377;28;19973;-67
2021/03/13 05:39:40;;;;;;;;;;;;;;;5.92;62.57;98159.69;5106949;28;19919;-67
2021/03/13 05:42:06;;;;;;;;;;;;;;;5.85;63.02;98158.03;5114576;28;19920;-67
2021/03/13 05:44:33;;;;;;;;;;;;;;;5.93;62.41;98153.75;5109183;28;19916;-67
2021/03/13 05:46:58;;;;;;;;;;;;;;;6.03;62.07;98145.16;5114466;28;19915;-67
2021/03/13 05:49:25;;;;;;;;;;;;;;;6.05;61.87;98152.78;5111426;28;19915;-68
2021/03/13 05:51:50;;;;;;;;;;;;;;;6.14;61.55;98157.81;5110245;28;19916;-68
2021/03/13 05:54:16;;;;;;;;;;;;;;;6.19;61.17;98162.00;5112695;28;19916;-67
2021/03/13 05:56:42;;;;;;;;;;;;;;;6.19;60.75;98158.63;5112931;28;19915;-67
2021/03/13 05:59:09;;;;;;;;;;;;;;;6.21;60.83;98162.81;5110423;28;19923;-67
2021/03/13 06:01:35;;;;;;;;;;;;;;;6.33;59.91;98155.06;5108070;28;19916;-66
2021/03/13 06:04:00;;;;;;;;;;;;;;;6.31;60.49;98161.88;5115020;28;19926;-67
2021/03/13 06:06:26;;;;;;;;;;;;;;;6.36;60.05;98154.19;5108262;28;19934;-67
2021/03/13 06:08:52;;;;;;;;;;;;;;;6.31;60.36;98163.59;5107760;28;20173;-67
2021/03/13 06:11:18;;;;;;;;;;;;;;;6.40;60.14;98169.44;5111320;28;19924;-67
2021/03/13 06:13:43;;;;;;;;;;;;;;;6.49;59.63;98162.56;5106820;28;20344;-68
2021/03/13 06:16:09;;;;;;;;;;;;;;;6.54;59.30;98173.50;5108905;28;19931;-70
2021/03/13 06:18:49;;;;;;;;;;;;;;;6.52;59.22;98168.47;5086024;28;20269;-68
2021/03/13 06:21:22;;;;;;;;;;;;;;;6.53;59.87;98180.34;5107958;28;19951;-68
2021/03/13 06:23:47;;;;;;;;;;;;;;;6.52;59.51;98180.34;5108515;28;19920;-69
2021/03/13 06:26:12;;;;;;;;;;;;;;;6.59;58.92;98181.97;5108158;28;19912;-67
2021/03/13 06:28:37;;;;;;;;;;;;;;;6.68;58.00;98176.78;5109771;28;19911;-68
2021/03/13 06:31:04;;;;;;;;;;;;;;;6.72;57.98;98176.72;5111374;28;19955;-68
2021/03/13 06:33:31;;;;;;;;;;;;;;;6.71;58.73;98177.56;5115003;28;19923;-67
2021/03/13 06:35:57;;;;;;;;;;;;;;;6.75;58.16;98178.38;5110106;28;19927;-68
2021/03/13 06:38:24;;;;;;;;;;;;;;;6.77;57.73;98189.41;5110965;28;20258;-68
2021/03/13 06:40:50;;;;;;;;;;;;;;;6.77;58.16;98182.63;5108830;28;19973;-67
2021/03/13 06:43:21;;;;;;;;;;;;;;;6.74;58.55;98181.81;5112850;28;19931;-67
2021/03/13 06:46:01;;;;;;;;;;;;;;;6.76;59.21;98185.16;5112659;28;20230;-67
2021/03/13 06:48:45;;;;;;;;;;;;;;;6.82;58.16;98187.66;5111325;28;19941;-66
2021/03/13 06:51:21;;;;;;;;;;;;;;;7.00;57.68;98186.63;5105035;28;19920;-67
2021/03/13 06:54:01;;;;;;;;;;;;;;;7.12;56.85;98186.47;5112309;28;20184;-67
2021/03/13 06:56:27;;;;;;;;;;;;;;;7.25;56.22;98191.38;5106736;28;19924;-67
2021/03/13 06:58:53;;;;;;;;;;;;;;;7.39;55.72;98192.88;5112084;28;19916;-67
2021/03/13 07:01:24;;;;;;;;;;;;;;;7.52;55.57;98195.25;5115057;28;19994;-66
2021/03/13 07:03:50;;;;;;;;;;;;;;;7.67;55.37;98201.88;5110279;28;20558;-67
2021/03/13 07:06:19;;;;;;;;;;;;;;;7.61;55.91;98196.84;5113549;28;19972;-68
2021/03/13 07:08:45;;;;;;;;;;;;;;;7.65;55.92;98204.44;5112378;28;19924;-68
2021/03/13 07:11:10;;;;;;;;;;;;;;;7.61;56.55;98209.59;5109948;28;20007;-67
2021/03/13 07:13:37;;;;;;;;;;;;;;;7.77;56.18;98204.25;5111373;28;20320;-67
2021/03/13 07:16:21;;;;;;;;;;;;;;;7.72;55.94;98198.34;5109879;28;19989;-67
2021/03/13 07:18:47;;;;;;;;;;;;;;;7.71;55.90;98194.16;5098859;28;20370;-67
2021/03/13 07:21:13;;;;;;;;;;;;;;;7.77;56.02;98190.63;5106462;28;19924;-67
2021/03/13 07:23:39;;;;;;;;;;;;;;;7.85;55.69;98199.00;5110521;28;19931;-67
2021/03/13 07:26:05;;;;;;;;;;;;;;;8.01;55.77;98194.53;5106903;28;20593;-68
2021/03/13 07:28:31;;;;;;;;;;;;;;;8.21;54.36;98195.06;5111315;28;19915;-68
2021/03/13 07:30:56;;;;;;;;;;;;;;;8.38;53.98;98200.75;5109483;28;19916;-68
2021/03/13 07:33:24;;;;;;;;;;;;;;;8.46;54.04;98195.50;5111661;28;19981;-68
2021/03/13 07:35:52;;;;;;;;;;;;;;;8.78;51.68;98200.91;5112012;28;20015;-68
2021/03/13 07:38:18;;;;;;;;;;;;;;;9.04;52.23;98192.69;5108272;28;19920;-70
2021/03/13 07:40:44;;;;;;;;;;;;;;;9.09;50.44;98191.75;5107950;28;19916;-70
2021/03/13 07:43:12;;;;;;;;;;;;;;;9.22;50.30;98201.72;5113102;28;20180;-66
2021/03/13 07:45:38;;;;;;;;;;;;;;;9.25;50.29;98194.00;5108117;28;20295;-67
2021/03/13 07:48:04;;;;;;;;;;;;;;;9.34;50.58;98193.78;5111722;28;20261;-67
2021/03/13 07:50:29;;;;;;;;;;;;;;;9.36;50.26;98199.72;5109651;28;19926;-66
2021/03/13 07:52:55;;;;;;;;;;;;;;;9.46;49.50;98201.22;5111913;28;19920;-66
2021/03/13 07:55:21;;;;;;;;;;;;;;;9.67;49.69;98202.47;5109405;28;20194;-66
2021/03/13 07:57:48;;;;;;;;;;;;;;;9.79;48.57;98199.63;5112265;28;19915;-66
2021/03/13 08:00:14;;;;;;;;;;;;;;;9.78;48.97;98198.78;5109252;28;19918;-66
2021/03/13 08:02:41;;;;;;;;;;;;;;;9.92;48.26;98201.03;5106296;28;19916;-67
2021/03/13 08:05:08;;;;;;;;;;;;;;;10.04;48.63;98200.75;5113276;28;19911;-67
2021/03/13 08:07:51;;;;;;;;;;;;;;;10.17;47.53;98196.19;5110452;28;19931;-66
2021/03/13 08:10:35;;;;;;;;;;;;;;;10.41;47.24;98198.13;5109201;28;19919;-66
2021/03/13 08:13:00;;;;;;;;;;;;;;;10.50;46.44;98195.34;5104585;28;20018;-67
2021/03/13 08:15:29;;;;;;;;;;;;;;;10.70;46.16;98198.22;5114415;28;20018;-67
2021/03/13 08:17:54;;;;;;;;;;;;;;;10.72;48.46;98196.47;5112260;28;19920;-67
2021/03/13 08:20:27;;;;;;;;;;;;;;;10.84;47.89;98183.31;5119274;28;19919;-67
2021/03/13 08:23:11;;;;;;;;;;;;;;;11.01;46.73;98188.00;5111567;28;20146;-67
2021/03/13 08:25:51;;;;;;;;;;;;;;;11.12;46.13;98175.69;5115073;28;19920;-66
2021/03/13 08:28:35;;;;;;;;;;;;;;;11.12;45.83;98175.69;5112193;28;19923;-66
2021/03/13 08:31:19;;;;;;;;;;;;;;;11.35;44.68;98177.59;5112854;28;19926;-66
2021/03/13 08:33:44;;;;;;;;;;;;;;;11.17;45.09;98176.41;5110038;28;19976;-66
2021/03/13 08:36:16;;;;;;;;;;;;;;;11.29;44.45;98157.25;5113682;28;20182;-66
2021/03/13 08:38:53;;;;;;;;;;;;;;;11.37;44.13;98163.00;5111059;28;19916;-67
2021/03/13 08:41:37;;;;;;;;;;;;;;;11.44;43.68;98167.91;5116445;28;20010;-67
2021/03/13 08:44:02;;;;;;;;;;;;;;;11.49;43.42;98160.06;5111966;28;19931;-68
2021/03/13 08:46:40;;;;;;;;;;;;;;;11.38;43.47;98157.81;5114753;28;19912;-66
2021/03/13 08:49:06;;;;;;;;;;;;;;;11.57;43.59;98144.44;5113188;28;19919;-67
2021/03/13 08:51:31;;;;;;;;;;;;;;;11.43;42.64;98155.97;5112658;28;19919;-67
2021/03/13 08:53:56;;;;;;;;;;;;;;;11.52;42.32;98154.00;5111846;28;19926;-67
2021/03/13 08:56:38;;;;;;;;;;;;;;;11.44;42.38;98154.22;5117243;28;19965;-66
2021/03/13 08:59:13;;;;;;;;;;;;;;;11.44;42.97;98146.53;5110577;28;19927;-66
2021/03/13 09:01:39;;;;;;;;;;;;;;;11.57;43.21;98147.84;5111408;28;20284;-68
2021/03/13 09:04:04;;;;;;;;;;;;;;;11.71;42.98;98142.28;5110256;28;20268;-67
2021/03/13 09:06:29;;;;;;;;;;;;;;;11.70;42.19;98141.44;5106930;28;19924;-68
2021/03/13 09:09:11;;;;;;;;;;;;;;;11.59;42.68;98135.78;5104005;28;19924;-67
2021/03/13 09:11:37;;;;;;;;;;;;;;;11.70;42.37;98132.91;5103148;28;20459;-68
2021/03/13 09:14:03;;;;;;;;;;;;;;;11.56;41.87;98135.03;5100461;28;19912;-68
2021/03/13 09:16:38;;;;;;;;;;;;;;;11.63;41.94;98131.38;5106476;28;19912;-68
2021/03/13 09:19:04;;;;;;;;;;;;;;;11.61;41.51;98122.91;5101936;28;19919;-67
2021/03/13 09:21:41;;;;;;;;;;;;;;;11.69;41.62;98113.22;5104117;28;19927;-68
2021/03/13 09:24:07;;;;;;;;;;;;;;;11.89;41.13;98111.72;5104892;28;20526;-68
2021/03/13 09:26:33;;;;;;;;;;;;;;;11.95;40.82;98105.56;5102711;28;20199;-68
2021/03/13 09:28:58;;;;;;;;;;;;;;;12.01;40.77;98097.63;5101660;28;19972;-67
2021/03/13 09:31:24;;;;;;;;;;;;;;;12.24;40.94;98092.59;5105390;28;20197;-67
2021/03/13 09:33:49;;;;;;;;;;;;;;;12.11;40.44;98091.31;5103354;28;20271;-67
2021/03/13 09:36:15;;;;;;;;;;;;;;;12.28;40.72;98085.59;5101535;28;19916;-67
2021/03/13 09:38:53;;;;;;;;;;;;;;;12.37;40.51;98082.72;5101780;28;19912;-67
2021/03/13 09:41:18;;;;;;;;;;;;;;;12.40;40.26;98085.16;5102635;28;19920;-67
2021/03/13 09:43:44;;;;;;;;;;;;;;;12.50;40.36;98076.25;5103286;28;19934;-67
2021/03/13 09:46:16;;;;;;;;;;;;;;;12.54;38.92;98069.25;5102469;28;19916;-66
2021/03/13 09:48:42;;;;;;;;;;;;;;;12.43;40.20;98064.50;5103954;28;19915;-66
2021/03/13 09:51:08;;;;;;;;;;;;;;;12.79;40.46;98063.19;5099709;28;19928;-67
2021/03/13 09:53:33;;;;;;;;;;;;;;;12.74;39.91;98057.34;5104575;28;19940;-66
2021/03/13 09:55:59;;;;;;;;;;;;;;;12.72;39.77;98056.59;5104522;28;19916;-66
2021/03/13 09:58:24;;;;;;;;;;;;;;;12.62;40.10;98054.38;5103705;28;19946;-67
2021/03/13 10:00:50;;;;;;;;;;;;;;;12.62;40.35;98055.22;5100253;28;20300;-68
2021/03/13 10:03:16;;;;;;;;;;;;;;;12.55;40.42;98052.94;5100218;28;20375;-66
2021/03/13 10:05:42;;;;;;;;;;;;;;;12.71;40.90;98047.19;5109309;28;19916;-66
2021/03/13 10:08:09;;;;;;;;;;;;;;;12.81;40.24;98037.41;5111359;28;20184;-66
2021/03/13 10:10:35;;;;;;;;;;;;;;;12.86;40.09;98039.81;5111674;28;19916;-66
2021/03/13 10:13:03;;;;;;;;;;;;;;;13.03;40.87;98035.66;5111712;28;19937;-67
2021/03/13 10:15:30;;;;;;;;;;;;;;;13.27;39.50;98031.34;5115151;28;20350;-67
2021/03/13 10:18:03;;;;;;;;;;;;;;;13.22;39.20;98025.53;5109659;28;19919;-66
2021/03/13 10:20:36;;;;;;;;;;;;;;;13.18;39.05;98027.41;5115590;28;19922;-67
2021/03/13 10:23:05;;;;;;;;;;;;;;;13.40;39.08;98014.53;5110769;28;19967;-67
2021/03/13 10:25:30;;;;;;;;;;;;;;;13.35;38.66;98008.72;5113364;28;19944;-67
2021/03/13 10:28:13;;;;;;;;;;;;;;;13.59;39.72;98005.16;5110253;28;19974;-67
2021/03/13 10:30:40;;;;;;;;;;;;;;;13.79;39.03;97986.28;5112811;28;20260;-67
2021/03/13 10:33:05;;;;;;;;;;;;;;;13.88;39.50;97980.72;5110286;28;20508;-68
2021/03/13 10:35:32;;;;;;;;;;;;;;;14.10;39.02;97989.22;5116639;28;19998;-68
2021/03/13 10:37:59;;;;;;;;;;;;;;;13.96;38.41;97986.38;5106600;28;19942;-67
2021/03/13 10:40:30;;;;;;;;;;;;;;;14.06;39.07;97977.38;5110780;28;20440;-67
2021/03/13 10:43:08;;;;;;;;;;;;;;;14.16;38.51;97980.41;5111418;28;20182;-68
2021/03/13 10:45:33;;;;;;;;;;;;;;;14.42;38.79;97974.97;5110848;28;19972;-67
2021/03/13 10:48:03;;;;;;;;;;;;;;;14.46;37.17;97961.03;5112017;28;19915;-67
2021/03/13 10:50:29;;;;;;;;;;;;;;;14.70;35.14;97955.63;5106361;28;19924;-67
2021/03/13 10:52:54;;;;;;;;;;;;;;;14.92;35.55;97945.97;5101416;28;19935;-66
2021/03/13 10:55:37;;;;;;;;;;;;;;;15.08;35.31;97931.44;5104104;28;20002;-66
2021/03/13 10:58:02;;;;;;;;;;;;;;;15.24;34.67;97926.34;5104840;28;19974;-66
2021/03/13 11:00:28;;;;;;;;;;;;;;;15.33;33.73;97908.66;5103641;28;19920;-66
2021/03/13 11:02:53;;;;;;;;;;;;;;;15.44;33.43;97915.88;5105659;28;19921;-67
2021/03/13 11:05:19;;;;;;;;;;;;;;;15.25;32.87;97915.97;5117331;28;19923;-67
2021/03/13 11:07:44;;;;;;;;;;;;;;;15.02;32.67;97918.84;5102154;28;19920;-67
2021/03/13 11:10:10;;;;;;;;;;;;;;;15.25;32.94;97897.88;5103741;28;19984;-67
2021/03/13 11:12:35;;;;;;;;;;;;;;;15.47;32.86;97897.66;5103515;28;20006;-66
2021/03/13 11:15:01;;;;;;;;;;;;;;;15.51;32.49;97897.44;5105028;28;19912;-67
2021/03/13 11:17:26;;;;;;;;;;;;;;;15.61;32.85;97884.06;5104171;28;19916;-68
2021/03/13 11:19:52;;;;;;;;;;;;;;;15.60;33.14;97882.38;5106084;28;19930;-68
2021/03/13 11:22:17;;;;;;;;;;;;;;;15.65;32.20;97862.31;5105860;28;19926;-68
2021/03/13 11:24:42;;;;;;;;;;;;;;;15.41;32.60;97856.59;5104578;28;19924;-66
2021/03/13 11:27:08;;;;;;;;;;;;;;;15.33;32.71;97854.41;5102452;28;19930;-66
2021/03/13 11:29:34;;;;;;;;;;;;;;;15.35;31.70;97838.84;5101543;28;19977;-66
2021/03/13 11:32:00;;;;;;;;;;;;;;;15.33;32.60;97828.59;5121139;28;19916;-66
2021/03/13 11:34:25;;;;;;;;;;;;;;;15.30;33.11;97830.50;5104688;28;19916;-66
2021/03/13 11:36:51;;;;;;;;;;;;;;;15.60;32.53;97810.88;5102366;28;20002;-65
2021/03/13 11:39:16;;;;;;;;;;;;;;;15.71;32.24;97818.91;5099942;28;19928;-65
2021/03/13 11:41:42;;;;;;;;;;;;;;;15.72;31.30;97814.56;5100255;28;20071;-67
2021/03/13 11:44:08;;;;;;;;;;;;;;;15.79;31.99;97798.66;5098727;28;20181;-64
2021/03/13 11:46:33;;;;;;;;;;;;;;;16.09;31.88;97793.56;5098756;28;19916;-65
2021/03/13 11:48:59;;;;;;;;;;;;;;;16.09;31.35;97784.97;5115193;28;19923;-66
2021/03/13 11:51:24;;;;;;;;;;;;;;;16.15;31.67;97785.50;5104615;28;19916;-67
2021/03/13 11:53:50;;;;;;;;;;;;;;;16.38;31.83;97771.28;5103604;28;20017;-66
2021/03/13 11:56:15;;;;;;;;;;;;;;;16.54;31.98;97771.25;5104165;28;20318;-67
2021/03/13 11:58:41;;;;;;;;;;;;;;;16.09;34.07;97783.22;5105448;28;19915;-67
2021/03/13 12:01:06;;;;;;;;;;;;;;;15.96;33.70;97769.31;5104574;28;19920;-69
2021/03/13 12:03:31;;;;;;;;;;;;;;;15.93;34.64;97782.41;5109999;28;19955;-69
2021/03/13 12:05:57;;;;;;;;;;;;;;;15.87;33.72;97769.81;5107823;28;19939;-68
2021/03/13 12:08:22;;;;;;;;;;;;;;;15.89;34.48;97773.16;5106207;28;19978;-67
2021/03/13 12:10:48;;;;;;;;;;;;;;;15.89;35.99;97758.47;5107012;28;19983;-68
2021/03/13 12:13:13;;;;;;;;;;;;;;;15.87;35.93;97744.78;5123554;27;20206;-69
2021/03/13 12:15:39;;;;;;;;;;;;;;;15.98;35.83;97764.91;5110159;28;20029;-68
2021/03/13 12:18:05;;;;;;;;;;;;;;;16.22;36.05;97742.84;5108532;28;19915;-69
2021/03/13 12:20:30;;;;;;;;;;;;;;;16.21;35.27;97738.59;5103796;28;19947;-68
2021/03/13 12:22:55;;;;;;;;;;;;;;;16.21;37.14;97736.00;5105709;28;19924;-70
2021/03/13 12:25:21;;;;;;;;;;;;;;;16.21;37.02;97745.53;5099289;28;20272;-69
2021/03/13 12:27:47;;;;;;;;;;;;;;;15.80;37.31;97752.97;5103343;28;19924;-68
2021/03/13 12:30:14;;;;;;;;;;;;;;;15.80;37.79;97729.69;5102684;28;19920;-69
2021/03/13 12:32:40;;;;;;;;;;;;;;;15.93;37.93;97726.38;5100041;28;19962;-68
2021/03/13 12:35:06;;;;;;;;;;;;;;;15.65;38.94;97702.94;5102456;28;20012;-68
2021/03/13 12:37:32;;;;;;;;;;;;;;;15.52;38.82;97705.38;5104336;28;19920;-70
2021/03/13 12:39:58;;;;;;;;;;;;;;;15.26;40.56;97716.19;5103884;28;20192;-69
2021/03/13 12:42:23;;;;;;;;;;;;;;;15.37;40.59;97698.38;5104263;28;19920;-69
2021/03/13 12:44:49;;;;;;;;;;;;;;;15.37;39.95;97695.78;5102145;28;20029;-70
2021/03/13 12:47:14;;;;;;;;;;;;;;;15.06;40.97;97693.97;5101822;28;20285;-69
2021/03/13 12:49:39;;;;;;;;;;;;;;;15.00;41.39;97694.31;5103933;28;19919;-69
2021/03/13 12:52:05;;;;;;;;;;;;;;;14.92;41.79;97698.19;5109623;28;20332;-69
2021/03/13 12:54:30;;;;;;;;;;;;;;;14.91;41.80;97676.72;5108247;28;19942;-70